Time;durP1;ratioP1;P1;durP2;ratioP2;P2;SDS_P1;SDS_P2;PMS_P1;PMS_P2;Temp;Humidity;BMP_temperature;BMP_pressure;BME280_temperature;BME280_humidity;BME280_pressure;Samples;Min_cycle;Max_cycle;Signal;HPM_P1;HPM_P2
2021/04/24 00:00:27;;;;;;;9.02;5.82;;;2.80;90.30;;;;;;5068733;28;20049;-76
2021/04/24 00:02:54;;;;;;;14.30;5.28;;;2.80;90.00;;;;;;5070059;28;20067;-76
2021/04/24 00:05:29;;;;;;;7.40;6.40;;;2.80;89.70;;;;;;5070279;28;20063;-76
2021/04/24 00:08:02;;;;;;;6.95;5.85;;;2.70;90.00;;;;;;5052000;28;20648;-76
2021/04/24 00:10:31;;;;;;;12.13;5.32;;;2.60;91.20;;;;;;5052737;28;20068;-76
2021/04/24 00:13:00;;;;;;;9.48;5.07;;;2.30;92.00;;;;;;5069898;28;20067;-76
2021/04/24 00:15:28;;;;;;;6.40;5.80;;;2.30;92.30;;;;;;5069283;28;20496;-76
2021/04/24 00:18:04;;;;;;;9.35;6.20;;;2.30;92.40;;;;;;5068941;28;20049;-76
2021/04/24 00:20:32;;;;;;;9.35;6.55;;;2.30;92.30;;;;;;5054357;28;20045;-76
2021/04/24 00:23:00;;;;;;;9.63;6.22;;;2.40;92.00;;;;;;5053832;28;20049;-76
2021/04/24 00:25:28;;;;;;;11.75;5.63;;;2.50;91.60;;;;;;5053541;28;20053;-76
2021/04/24 00:28:11;;;;;;;10.63;6.47;;;2.60;91.20;;;;;;5054100;28;20068;-77
2021/04/24 00:30:39;;;;;;;13.32;7.22;;;2.60;91.30;;;;;;5053439;28;20071;-76
2021/04/24 00:33:07;;;;;;;11.75;5.97;;;2.60;91.20;;;;;;5057053;28;20049;-76
2021/04/24 00:35:35;;;;;;;10.15;8.45;;;2.60;91.00;;;;;;5064284;28;20052;-76
2021/04/24 00:38:02;;;;;;;9.32;7.80;;;2.70;90.80;;;;;;5054374;28;20481;-76
2021/04/24 00:40:30;;;;;;;14.98;6.22;;;2.60;90.50;;;;;;5053099;28;20052;-76
2021/04/24 00:43:02;;;;;;;6.25;5.30;;;2.50;91.00;;;;;;5053472;28;20045;-76
2021/04/24 00:45:30;;;;;;;7.55;5.97;;;2.60;91.00;;;;;;5054247;28;20064;-76
2021/04/24 00:48:05;;;;;;;8.85;6.60;;;2.60;91.10;;;;;;5053539;28;20489;-76
2021/04/24 00:50:36;;;;;;;10.40;5.90;;;2.60;91.00;;;;;;5035887;28;20049;-76
2021/04/24 00:53:08;;;;;;;20.35;5.78;;;2.70;90.90;;;;;;5052430;28;20049;-76
2021/04/24 00:55:37;;;;;;;8.55;7.13;;;2.70;90.40;;;;;;5072687;28;20413;-75
2021/04/24 00:58:09;;;;;;;9.63;5.25;;;2.80;90.20;;;;;;5059686;28;20092;-76
2021/04/24 01:00:36;;;;;;;7.83;5.70;;;2.60;90.30;;;;;;5052569;28;20052;-75
2021/04/24 01:03:04;;;;;;;9.15;5.60;;;2.50;90.60;;;;;;5056390;28;20044;-76
2021/04/24 01:05:39;;;;;;;22.08;7.15;;;2.50;90.80;;;;;;5056101;28;20052;-76
2021/04/24 01:08:08;;;;;;;8.35;5.18;;;2.40;91.30;;;;;;5072825;28;20490;-76
2021/04/24 01:10:45;;;;;;;9.25;6.05;;;2.10;91.70;;;;;;5072866;28;20449;-76
2021/04/24 01:13:14;;;;;;;7.82;4.93;;;2.10;91.70;;;;;;5072804;28;20048;-76
2021/04/24 01:15:42;;;;;;;8.02;4.97;;;2.20;91.60;;;;;;5070680;28;20123;-76
2021/04/24 01:18:11;;;;;;;11.77;5.13;;;2.20;91.60;;;;;;5073385;28;20079;-76
2021/04/24 01:20:39;;;;;;;8.23;5.38;;;2.10;91.60;;;;;;5070412;28;20051;-76
2021/04/24 01:23:08;;;;;;;8.43;5.95;;;2.00;91.60;;;;;;5038118;28;20060;-76
2021/04/24 01:25:41;;;;;;;7.93;6.03;;;2.00;92.00;;;;;;5072405;28;20060;-76
2021/04/24 01:28:08;;;;;;;10.60;6.75;;;1.80;92.40;;;;;;5072802;28;20048;-76
2021/04/24 01:30:44;;;;;;;13.07;6.32;;;1.60;92.50;;;;;;5072272;28;20056;-76
2021/04/24 01:33:13;;;;;;;10.35;6.60;;;1.70;92.80;;;;;;5060900;28;20051;-76
2021/04/24 01:35:43;;;;;;;10.25;6.55;;;1.60;93.00;;;;;;5072781;28;20036;-76
2021/04/24 01:38:11;;;;;;;17.77;9.13;;;1.60;93.20;;;;;;5073276;28;20056;-76
2021/04/24 01:40:38;;;;;;;13.10;6.15;;;1.60;93.20;;;;;;5054727;28;20040;-76
2021/04/24 01:43:06;;;;;;;14.60;7.20;;;1.70;93.00;;;;;;5038078;28;20047;-76
2021/04/24 01:45:35;;;;;;;16.02;8.23;;;1.70;92.80;;;;;;5072494;28;20067;-76
2021/04/24 01:48:05;;;;;;;9.27;6.65;;;1.70;92.80;;;;;;5072334;28;20115;-75
2021/04/24 01:50:37;;;;;;;11.20;6.20;;;1.70;92.70;;;;;;5055252;28;20049;-76
2021/04/24 01:53:06;;;;;;;10.97;6.90;;;1.70;92.60;;;;;;5054734;28;20044;-76
2021/04/24 01:55:37;;;;;;;8.57;7.15;;;1.70;92.50;;;;;;5072191;28;20068;-76
2021/04/24 01:58:08;;;;;;;8.60;5.97;;;1.80;92.40;;;;;;5072613;28;20049;-75
2021/04/24 02:00:39;;;;;;;9.52;6.68;;;1.80;92.30;;;;;;5053849;28;20052;-76
2021/04/24 02:03:09;;;;;;;7.68;6.35;;;1.80;92.40;;;;;;5071774;28;20060;-76
2021/04/24 02:05:37;;;;;;;7.47;6.22;;;1.90;92.20;;;;;;5072850;28;20429;-76
2021/04/24 02:08:11;;;;;;;19.90;7.32;;;1.70;92.30;;;;;;5071122;28;20040;-76
2021/04/24 02:10:41;;;;;;;7.25;5.65;;;1.60;92.60;;;;;;5072430;28;20091;-75
2021/04/24 02:13:11;;;;;;;8.65;6.43;;;1.50;93.00;;;;;;5053216;28;20041;-75
2021/04/24 02:15:39;;;;;;;10.57;6.97;;;1.50;92.90;;;;;;5071765;28;20413;-76
2021/04/24 02:18:07;;;;;;;15.90;8.57;;;1.50;92.90;;;;;;5072337;28;20061;-76
2021/04/24 02:20:37;;;;;;;11.13;7.30;;;1.50;92.80;;;;;;5055464;28;20044;-75
2021/04/24 02:23:06;;;;;;;18.77;6.68;;;1.40;93.00;;;;;;5051634;28;20055;-75
2021/04/24 02:25:33;;;;;;;8.43;7.18;;;1.30;93.10;;;;;;5052215;28;20509;-75
2021/04/24 02:28:01;;;;;;;12.02;8.15;;;1.30;93.50;;;;;;5051696;28;20485;-79
2021/04/24 02:30:33;;;;;;;8.77;6.55;;;1.20;93.80;;;;;;5052026;28;20060;-80
2021/04/24 02:33:03;;;;;;;9.68;7.28;;;1.10;93.90;;;;;;5036947;28;20041;-76
2021/04/24 02:35:39;;;;;;;12.45;7.10;;;1.10;94.00;;;;;;5070953;28;20503;-76
2021/04/24 02:38:07;;;;;;;14.65;8.85;;;1.20;94.10;;;;;;5054416;28;20060;-75
2021/04/24 02:40:34;;;;;;;11.27;7.90;;;1.10;94.20;;;;;;5071501;28;20496;-75
2021/04/24 02:43:02;;;;;;;33.45;8.43;;;1.10;94.10;;;;;;5071321;28;20405;-76
2021/04/24 02:45:29;;;;;;;17.25;7.90;;;1.20;94.00;;;;;;5053524;28;20062;-75
2021/04/24 02:47:56;;;;;;;12.30;7.68;;;1.20;94.00;;;;;;5071080;28;20057;-75
2021/04/24 02:50:24;;;;;;;15.20;8.73;;;1.20;94.10;;;;;;5054096;28;20051;-76
2021/04/24 02:52:51;;;;;;;14.68;7.60;;;1.20;94.10;;;;;;5071386;28;20075;-76
2021/04/24 02:55:19;;;;;;;10.85;8.00;;;1.20;94.20;;;;;;5070927;28;20048;-76
2021/04/24 02:57:46;;;;;;;11.27;7.22;;;1.30;94.20;;;;;;5060069;28;20059;-76
2021/04/24 03:00:17;;;;;;;13.93;8.63;;;1.20;94.20;;;;;;5049407;28;20075;-76
2021/04/24 03:02:44;;;;;;;10.73;7.38;;;1.20;94.30;;;;;;5050392;28;20053;-76
2021/04/24 03:05:16;;;;;;;15.75;6.68;;;1.20;94.40;;;;;;5071475;28;20052;-76
2021/04/24 03:07:44;;;;;;;8.38;6.43;;;1.20;94.50;;;;;;5071328;28;20040;-76
2021/04/24 03:10:13;;;;;;;15.95;7.68;;;1.20;94.90;;;;;;5071123;28;20048;-75
2021/04/24 03:12:40;;;;;;;20.45;8.02;;;1.10;94.60;;;;;;5069761;28;20040;-76
2021/04/24 03:15:08;;;;;;;11.05;8.15;;;1.20;94.70;;;;;;5070373;28;20047;-76
2021/04/24 03:17:36;;;;;;;9.43;7.45;;;1.20;94.70;;;;;;5053749;28;20521;-76
2021/04/24 03:20:08;;;;;;;12.10;7.13;;;1.20;94.70;;;;;;5070914;28;20043;-76
2021/04/24 03:22:36;;;;;;;17.08;8.27;;;1.10;94.90;;;;;;5071262;28;20059;-75
2021/04/24 03:25:06;;;;;;;15.38;7.15;;;1.20;95.00;;;;;;5053022;28;20048;-76
2021/04/24 03:27:33;;;;;;;11.30;8.50;;;1.30;95.00;;;;;;5070040;28;20044;-76
2021/04/24 03:30:01;;;;;;;14.95;6.78;;;1.30;94.80;;;;;;5070295;28;20055;-76
2021/04/24 03:32:28;;;;;;;13.18;6.60;;;1.30;94.80;;;;;;5062899;28;20041;-75
2021/04/24 03:34:55;;;;;;;9.20;7.10;;;1.30;95.10;;;;;;5068859;28;20049;-76
2021/04/24 03:37:23;;;;;;;10.95;7.63;;;1.50;95.10;;;;;;5071086;28;20059;-75
2021/04/24 03:39:51;;;;;;;13.30;5.38;;;1.50;95.60;;;;;;5070160;28;20043;-76
2021/04/24 03:42:18;;;;;;;14.60;7.65;;;1.50;95.50;;;;;;5070412;28;20052;-75
2021/04/24 03:44:46;;;;;;;12.25;8.88;;;1.50;95.40;;;;;;5070018;28;20611;-75
2021/04/24 03:47:15;;;;;;;9.25;7.20;;;1.40;95.50;;;;;;5069841;28;20397;-75
2021/04/24 03:49:42;;;;;;;8.70;6.35;;;1.40;95.40;;;;;;5069948;28;20056;-75
2021/04/24 03:52:10;;;;;;;9.05;5.35;;;1.30;95.60;;;;;;5070214;28;20057;-76
2021/04/24 03:54:37;;;;;;;8.60;5.28;;;1.20;94.80;;;;;;5070055;28;20079;-75
2021/04/24 03:57:05;;;;;;;15.50;5.80;;;0.90;94.80;;;;;;5069176;28;20053;-75
2021/04/24 03:59:32;;;;;;;8.77;5.60;;;0.60;96.10;;;;;;5069834;28;20048;-76
2021/04/24 04:02:00;;;;;;;12.90;7.22;;;0.40;96.50;;;;;;5070386;28;20056;-76
2021/04/24 04:04:27;;;;;;;10.73;8.48;;;0.50;97.30;;;;;;5069811;28;20067;-75
2021/04/24 04:06:54;;;;;;;13.48;6.32;;;0.70;97.80;;;;;;5070653;28;20048;-76
2021/04/24 04:09:22;;;;;;;17.88;7.63;;;0.80;97.50;;;;;;5070305;28;20071;-75
2021/04/24 04:11:50;;;;;;;12.75;7.40;;;1.00;97.20;;;;;;5069633;28;20045;-75
2021/04/24 04:14:18;;;;;;;6.82;5.70;;;1.00;96.80;;;;;;5070242;28;20049;-75
2021/04/24 04:16:45;;;;;;;6.95;5.20;;;0.90;97.10;;;;;;5069882;28;20040;-75
2021/04/24 04:19:13;;;;;;;11.65;6.35;;;0.90;97.50;;;;;;5069609;28;20037;-76
2021/04/24 04:21:40;;;;;;;11.05;5.43;;;1.10;97.60;;;;;;5069937;28;20045;-75
2021/04/24 04:24:08;;;;;;;9.80;7.55;;;1.30;97.30;;;;;;5069836;28;20405;-75
2021/04/24 04:26:35;;;;;;;7.35;5.25;;;1.50;96.90;;;;;;5052412;28;20052;-76
2021/04/24 04:29:02;;;;;;;15.27;6.65;;;1.70;96.50;;;;;;5069539;28;20055;-75
2021/04/24 04:31:30;;;;;;;15.18;6.85;;;1.80;96.20;;;;;;5069923;28;20037;-75
2021/04/24 04:34:01;;;;;;;11.70;6.28;;;1.90;96.10;;;;;;5069993;28;20052;-76
2021/04/24 04:36:31;;;;;;;13.37;7.10;;;2.00;96.00;;;;;;5068898;28;20507;-75
2021/04/24 04:38:58;;;;;;;13.90;5.57;;;2.20;95.80;;;;;;5069981;28;20123;-75
2021/04/24 04:41:27;;;;;;;9.25;5.22;;;2.30;95.50;;;;;;5069951;28;20056;-76
2021/04/24 04:43:54;;;;;;;7.53;5.75;;;2.40;95.30;;;;;;5069798;28;20052;-76
2021/04/24 04:46:21;;;;;;;9.52;6.07;;;2.50;95.00;;;;;;5070066;28;20057;-75
2021/04/24 04:48:49;;;;;;;7.28;6.45;;;2.70;94.70;;;;;;5069066;28;20045;-75
2021/04/24 04:51:17;;;;;;;6.68;5.00;;;3.00;94.20;;;;;;5069628;28;20056;-76
2021/04/24 04:53:44;;;;;;;6.82;6.15;;;3.30;93.70;;;;;;5048618;28;20060;-76
2021/04/24 04:56:13;;;;;;;7.38;5.28;;;3.50;93.30;;;;;;5049317;28;20041;-76
2021/04/24 04:58:40;;;;;;;6.32;4.80;;;3.70;92.90;;;;;;5050090;28;20771;-76
2021/04/24 05:01:11;;;;;;;8.18;6.35;;;3.90;92.50;;;;;;5046459;28;20052;-75
2021/04/24 05:03:39;;;;;;;6.53;5.20;;;4.10;92.20;;;;;;5057380;28;20044;-75
2021/04/24 05:06:06;;;;;;;5.45;3.90;;;4.30;91.70;;;;;;5052458;28;20063;-76
2021/04/24 05:08:36;;;;;;;5.43;4.93;;;4.60;91.00;;;;;;5054147;28;20044;-76
2021/04/24 05:11:04;;;;;;;9.95;6.55;;;4.90;90.60;;;;;;5072821;28;20045;-76
2021/04/24 05:13:32;;;;;;;8.32;4.97;;;5.20;90.00;;;;;;5055877;28;20068;-76
2021/04/24 05:16:00;;;;;;;11.73;5.32;;;5.50;88.70;;;;;;5072671;28;20405;-76
2021/04/24 05:18:28;;;;;;;7.22;5.43;;;5.80;88.30;;;;;;5073423;28;20051;-76
2021/04/24 05:20:55;;;;;;;6.93;5.30;;;6.10;88.90;;;;;;5073281;28;20405;-76
2021/04/24 05:23:23;;;;;;;12.45;5.60;;;6.30;85.50;;;;;;5073017;28;20049;-76
2021/04/24 05:25:50;;;;;;;7.15;5.13;;;6.50;85.40;;;;;;5072841;28;20067;-76
2021/04/24 05:28:17;;;;;;;6.38;3.47;;;6.80;83.90;;;;;;5072960;28;20049;-76
2021/04/24 05:30:45;;;;;;;8.25;4.57;;;7.10;82.30;;;;;;5072329;28;20052;-76
2021/04/24 05:33:12;;;;;;;10.15;5.63;;;7.40;82.50;;;;;;5063780;28;20819;-76
2021/04/24 05:35:39;;;;;;;6.88;4.63;;;7.70;81.10;;;;;;5062479;28;20056;-76
2021/04/24 05:38:07;;;;;;;7.00;5.93;;;8.00;79.10;;;;;;5053152;28;20049;-76
2021/04/24 05:40:34;;;;;;;5.88;5.30;;;8.00;78.00;;;;;;5052400;28;20048;-76
2021/04/24 05:43:01;;;;;;;7.60;4.03;;;8.20;80.40;;;;;;5052515;28;20045;-76
2021/04/24 05:45:29;;;;;;;11.23;4.85;;;8.30;79.50;;;;;;5053237;28;20053;-76
2021/04/24 05:47:56;;;;;;;7.20;5.28;;;8.30;79.90;;;;;;5052637;28;20037;-76
2021/04/24 05:50:24;;;;;;;7.38;4.25;;;8.60;80.20;;;;;;5051730;28;20406;-76
2021/04/24 05:52:55;;;;;;;11.85;4.68;;;9.10;76.50;;;;;;5052821;28;20064;-76
2021/04/24 05:55:22;;;;;;;4.80;4.18;;;9.50;76.70;;;;;;5071569;28;20049;-76
2021/04/24 05:57:50;;;;;;;11.00;4.57;;;9.80;73.80;;;;;;5072412;28;20055;-76
2021/04/24 06:00:20;;;;;;;12.48;5.22;;;9.90;73.60;;;;;;5054321;28;20055;-76
2021/04/24 06:02:48;;;;;;;3.97;3.57;;;10.60;70.30;;;;;;5072163;28;20049;-76
2021/04/24 06:05:16;;;;;;;8.43;3.97;;;10.90;68.50;;;;;;5072849;28;20295;-76
2021/04/24 06:07:44;;;;;;;3.95;3.63;;;11.20;69.10;;;;;;5072320;28;20052;-76
2021/04/24 06:10:14;;;;;;;11.60;4.25;;;11.80;65.00;;;;;;5072007;28;20056;-86
2021/04/24 06:12:43;;;;;;;5.15;4.10;;;12.10;66.00;;;;;;5037301;28;20045;-77
2021/04/24 06:15:11;;;;;;;9.65;4.00;;;12.60;63.00;;;;;;5072048;28;20053;-77
2021/04/24 06:17:39;;;;;;;9.30;4.70;;;13.00;62.10;;;;;;5072598;28;20057;-76
2021/04/24 06:20:09;;;;;;;8.40;4.90;;;12.90;58.80;;;;;;5059049;28;20063;-77
2021/04/24 06:22:37;;;;;;;4.40;3.83;;;12.90;58.40;;;;;;5052308;28;20049;-77
2021/04/24 06:25:06;;;;;;;7.88;4.10;;;12.80;56.40;;;;;;5051841;28;20060;-77
2021/04/24 06:27:34;;;;;;;5.38;3.83;;;12.80;60.90;;;;;;5051874;28;20512;-77
2021/04/24 06:30:06;;;;;;;7.97;5.22;;;12.90;54.30;;;;;;5051938;28;20053;-77
2021/04/24 06:32:34;;;;;;;6.95;4.03;;;12.70;58.40;;;;;;5051775;28;20489;-77
2021/04/24 06:35:06;;;;;;;11.80;5.80;;;12.50;59.50;;;;;;5071062;28;20036;-77
2021/04/24 06:37:34;;;;;;;8.82;4.78;;;12.70;58.70;;;;;;5072079;28;20056;-77
2021/04/24 06:40:03;;;;;;;11.32;4.88;;;13.10;60.40;;;;;;5071409;28;20048;-77
2021/04/24 06:42:31;;;;;;;5.80;4.15;;;13.80;54.30;;;;;;5072029;28;20052;-77
2021/04/24 06:44:59;;;;;;;6.68;4.05;;;14.10;53.90;;;;;;5036418;28;20048;-77
2021/04/24 06:47:27;;;;;;;7.30;4.07;;;14.40;53.20;;;;;;5071461;28;20048;-77
2021/04/24 06:49:54;;;;;;;8.95;4.65;;;14.70;50.70;;;;;;5071372;28;20053;-77
2021/04/24 06:52:21;;;;;;;4.22;3.83;;;13.90;54.10;;;;;;5071474;28;20044;-77
2021/04/24 06:54:49;;;;;;;8.38;4.78;;;14.50;53.00;;;;;;5071230;28;20170;-77
2021/04/24 06:57:17;;;;;;;9.85;5.57;;;14.80;52.50;;;;;;5033805;28;20045;-77
2021/04/24 06:59:45;;;;;;;5.20;4.20;;;14.70;54.50;;;;;;5050844;28;20045;-77
2021/04/24 07:02:12;;;;;;;12.25;4.90;;;15.00;52.60;;;;;;5051399;28;20067;-77
2021/04/24 07:04:40;;;;;;;5.60;3.97;;;14.60;51.40;;;;;;5065745;28;20041;-77
2021/04/24 07:07:09;;;;;;;9.95;4.43;;;15.20;52.20;;;;;;5071065;28;20489;-77
2021/04/24 07:09:37;;;;;;;5.50;3.95;;;16.40;48.10;;;;;;5071394;28;20045;-77
2021/04/24 07:12:06;;;;;;;9.48;4.07;;;17.20;43.10;;;;;;5070116;28;20044;-77
2021/04/24 07:14:34;;;;;;;7.90;4.07;;;18.30;41.90;;;;;;5071044;28;20052;-77
2021/04/24 07:17:01;;;;;;;5.22;3.95;;;19.60;37.90;;;;;;5070867;28;20040;-77
2021/04/24 07:19:29;;;;;;;7.65;4.25;;;19.50;39.20;;;;;;5070286;28;20044;-77
2021/04/24 07:21:56;;;;;;;9.15;4.13;;;20.60;37.40;;;;;;5071170;28;20060;-77
2021/04/24 07:24:23;;;;;;;7.93;5.00;;;20.70;35.10;;;;;;5053181;28;20041;-78
2021/04/24 07:26:51;;;;;;;4.90;3.95;;;20.70;35.40;;;;;;5070888;28;20049;-77
2021/04/24 07:29:18;;;;;;;7.35;4.43;;;20.40;35.40;;;;;;5070749;28;20060;-78
2021/04/24 07:31:46;;;;;;;8.60;4.32;;;20.40;36.80;;;;;;5067895;28;20826;-78
2021/04/24 07:34:16;;;;;;;;;;;20.30;33.30;;;;;;5064696;28;20059;-76
2021/04/24 07:36:43;;;;;;;6.65;3.67;;;20.90;34.00;;;;;;5051502;28;20285;-78
2021/04/24 07:39:11;;;;;;;5.45;4.72;;;19.30;35.20;;;;;;5056925;28;20036;-79
2021/04/24 07:41:39;;;;;;;7.03;4.97;;;18.80;39.80;;;;;;5059922;28;20052;-79
2021/04/24 07:44:09;;;;;;;4.28;3.38;;;20.20;37.10;;;;;;5040428;28;20056;-78
2021/04/24 07:46:36;;;;;;;10.20;5.40;;;21.60;34.20;;;;;;5069710;28;20056;-78
2021/04/24 07:49:05;;;;;;;4.90;3.95;;;22.40;32.20;;;;;;5069633;28;20052;-78
2021/04/24 07:51:32;;;;;;;6.47;4.40;;;22.30;31.20;;;;;;5051490;28;20071;-83
2021/04/24 07:53:59;;;;;;;4.82;3.83;;;21.70;30.60;;;;;;5044563;28;20052;-85
2021/04/24 07:56:27;;;;;;;5.40;3.10;;;21.10;35.50;;;;;;5031658;28;20049;-83
2021/04/24 07:58:54;;;;;;;8.82;4.53;;;21.70;33.80;;;;;;5049944;28;20060;-83
2021/04/24 08:01:22;;;;;;;7.93;4.28;;;21.20;33.60;;;;;;5049655;28;20116;-81
2021/04/24 08:03:49;;;;;;;6.22;3.92;;;20.40;34.90;;;;;;5031634;28;20049;-81
2021/04/24 08:06:18;;;;;;;9.77;4.05;;;21.90;33.60;;;;;;5049325;28;20052;-84
2021/04/24 08:08:46;;;;;;;5.70;3.75;;;21.80;33.50;;;;;;5052640;28;20048;-80
2021/04/24 08:11:14;;;;;;;11.30;4.60;;;22.30;32.00;;;;;;5064955;28;20519;-80
2021/04/24 08:13:41;;;;;;;9.23;5.22;;;22.60;31.30;;;;;;5049734;28;20053;-79
2021/04/24 08:16:13;;;;;;;8.10;4.22;;;23.00;31.00;;;;;;5049168;28;20143;-80
2021/04/24 08:18:40;;;;;;;11.38;5.30;;;22.70;31.80;;;;;;5049274;28;20061;-81
2021/04/24 08:21:08;;;;;;;13.85;4.82;;;22.10;33.20;;;;;;5030437;28;20385;-84
2021/04/24 08:23:35;;;;;;;9.95;4.63;;;22.20;29.70;;;;;;5031358;28;20034;-83
2021/04/24 08:26:03;;;;;;;6.78;4.18;;;23.10;30.00;;;;;;5024542;28;20390;-81
2021/04/24 08:28:30;;;;;;;5.85;4.00;;;24.40;29.10;;;;;;5069232;28;20052;-80
2021/04/24 08:30:57;;;;;;;6.97;4.38;;;24.60;27.50;;;;;;5069429;28;20060;-79
2021/04/24 08:33:25;;;;;;;8.45;4.72;;;25.10;26.90;;;;;;5057335;28;20478;-80
2021/04/24 08:35:52;;;;;;;10.07;4.63;;;26.10;26.30;;;;;;5054125;28;20040;-79
2021/04/24 08:38:20;;;;;;;7.03;4.72;;;26.70;25.10;;;;;;5054951;28;20078;-80
2021/04/24 08:40:48;;;;;;;9.50;5.03;;;25.70;27.60;;;;;;5049650;28;20053;-81
2021/04/24 08:43:15;;;;;;;11.30;5.05;;;23.20;29.10;;;;;;5052829;28;20049;-82
2021/04/24 08:45:43;;;;;;;6.22;4.20;;;23.20;29.50;;;;;;5020760;28;20087;-81
2021/04/24 08:48:11;;;;;;;6.53;4.53;;;23.30;28.70;;;;;;5054304;28;20053;-82
2021/04/24 08:50:38;;;;;;;6.57;4.55;;;21.00;34.00;;;;;;5054395;28;20063;-81
2021/04/24 08:53:19;;;;;;;5.25;4.28;;;20.60;32.70;;;;;;5053608;28;20040;-85
2021/04/24 08:55:52;;;;;;;6.60;4.57;;;19.70;31.00;;;;;;5055819;28;20040;-80
2021/04/24 08:58:20;;;;;;;10.20;5.03;;;18.20;38.50;;;;;;5058386;28;20061;-81
2021/04/24 09:00:50;;;;;;;7.82;5.55;;;17.50;44.30;;;;;;5036218;28;20071;-82
2021/04/24 09:03:21;;;;;;;8.95;5.28;;;16.30;44.00;;;;;;5055553;28;20405;-82
2021/04/24 09:05:51;;;;;;;5.60;4.90;;;15.50;43.60;;;;;;5074929;28;20059;-83
2021/04/24 09:08:28;;;;;;;7.65;4.82;;;15.20;48.90;;;;;;5074067;28;20053;-87
2021/04/24 09:11:06;;;;;;;5.63;4.57;;;15.60;41.70;;;;;;5039391;28;20052;-90
2021/04/24 09:13:33;;;;;;;7.53;5.05;;;15.20;43.00;;;;;;5056253;28;20049;-88
2021/04/24 09:16:01;;;;;;;7.55;6.13;;;15.10;49.60;;;;;;5054269;28;20041;-85
2021/04/24 09:18:30;;;;;;;8.35;5.22;;;15.50;43.10;;;;;;5074658;28;20052;-89
2021/04/24 09:21:00;;;;;;;6.30;4.50;;;15.60;40.70;;;;;;5073980;28;20067;-84
2021/04/24 09:23:27;;;;;;;8.13;4.77;;;15.40;48.40;;;;;;5073843;28;20409;-87
2021/04/24 09:26:04;;;;;;;15.63;4.47;;;15.40;43.00;;;;;;5039439;28;20053;-85
2021/04/24 09:28:45;;;;;;;8.45;5.93;;;15.80;42.80;;;;;;5039008;28;20051;-85
2021/04/24 09:31:18;;;;;;;6.40;5.28;;;15.70;43.70;;;;;;5055925;28;20041;-87
2021/04/24 09:33:47;;;;;;;8.85;5.15;;;15.70;45.60;;;;;;5039424;28;20409;-87
2021/04/24 09:36:17;;;;;;;8.60;4.68;;;15.90;41.20;;;;;;5040442;28;20045;-87
2021/04/24 09:38:48;;;;;;;5.82;4.75;;;15.80;41.50;;;;;;5035344;28;20061;-87
2021/04/24 09:41:28;;;;;;;10.07;4.47;;;15.70;43.10;;;;;;5036252;28;20057;-88
2021/04/24 09:44:00;;;;;;;8.45;5.25;;;16.10;42.20;;;;;;5053307;28;20045;-86
2021/04/24 09:46:46;;;;;;;13.38;6.03;;;16.40;45.20;;;;;;5019823;28;20052;-84
2021/04/24 09:49:14;;;;;;;9.38;4.50;;;15.90;41.70;;;;;;5033278;28;20041;-86
2021/04/24 09:51:43;;;;;;;8.88;5.53;;;15.80;44.20;;;;;;5037923;28;20378;-85
2021/04/24 09:54:11;;;;;;;9.73;5.38;;;16.20;47.90;;;;;;5021821;28;20056;-85
2021/04/24 09:56:39;;;;;;;11.32;5.72;;;16.20;42.50;;;;;;5054951;28;20049;-85
2021/04/24 09:59:09;;;;;;;9.40;5.90;;;16.10;50.60;;;;;;5038322;28;20041;-82
2021/04/24 10:01:41;;;;;;;22.33;6.47;;;16.20;42.70;;;;;;5072981;28;20056;-81
2021/04/24 10:04:13;;;;;;;6.82;4.72;;;16.40;42.50;;;;;;5034962;28;20056;-81
2021/04/24 10:06:42;;;;;;;8.98;5.82;;;16.40;41.10;;;;;;5019157;28;20057;-80
2021/04/24 10:09:27;;;;;;;9.13;4.55;;;16.10;49.90;;;;;;5051312;28;20041;-81
2021/04/24 10:12:01;;;;;;;10.27;5.70;;;16.00;41.70;;;;;;5051246;28;20045;-81
2021/04/24 10:14:41;;;;;;;7.70;5.68;;;15.80;43.10;;;;;;5052330;28;20060;-81
2021/04/24 10:17:17;;;;;;;9.70;4.82;;;15.60;48.20;;;;;;5033561;28;20045;-81
2021/04/24 10:19:46;;;;;;;8.30;5.68;;;15.80;40.30;;;;;;5046481;28;20041;-77
2021/04/24 10:22:16;;;;;;;11.10;6.10;;;15.30;44.80;;;;;;5052968;28;20053;-80
2021/04/24 10:24:44;;;;;;;8.63;5.30;;;15.50;44.20;;;;;;5051370;28;20041;-77
2021/04/24 10:27:13;;;;;;;8.43;6.20;;;15.50;42.40;;;;;;5052460;28;20291;-78
2021/04/24 10:29:42;;;;;;;5.45;4.50;;;15.80;44.90;;;;;;5051763;28;20067;-91
2021/04/24 10:32:10;;;;;;;7.72;4.28;;;15.70;44.40;;;;;;5034505;28;20044;-82
2021/04/24 10:34:39;;;;;;;6.45;4.93;;;15.80;46.80;;;;;;5051575;28;20059;-81
2021/04/24 10:37:07;;;;;;;12.13;4.95;;;16.00;46.30;;;;;;5034379;28;20049;-86
2021/04/24 10:39:37;;;;;;;16.40;6.30;;;16.20;44.00;;;;;;5018022;28;20052;-81
2021/04/24 10:42:11;;;;;;;10.60;6.60;;;16.30;43.40;;;;;;5036152;28;20056;-82
2021/04/24 10:44:56;;;;;;;6.68;5.07;;;16.20;49.10;;;;;;5033592;28;20037;-86
2021/04/24 10:47:41;;;;;;;7.82;5.68;;;16.00;50.00;;;;;;5051840;28;20045;-85
2021/04/24 10:50:20;;;;;;;10.35;6.93;;;16.00;47.40;;;;;;5052549;28;20402;-86
2021/04/24 10:52:50;;;;;;;6.97;5.28;;;16.10;46.50;;;;;;5034105;28;20045;-85
2021/04/24 10:55:28;;;;;;;9.75;6.05;;;16.30;48.40;;;;;;5050506;28;20057;-87
2021/04/24 10:57:58;;;;;;;11.98;5.68;;;16.40;43.90;;;;;;5047099;28;20484;-86
2021/04/24 11:00:29;;;;;;;10.65;6.65;;;16.20;43.80;;;;;;5070949;28;20044;-84
2021/04/24 11:02:59;;;;;;;12.00;5.68;;;16.10;49.90;;;;;;5069692;28;20110;-87
2021/04/24 11:05:31;;;;;;;6.13;4.63;;;16.20;44.20;;;;;;5054642;28;20505;-85
2021/04/24 11:08:20;;;;;;;9.25;5.72;;;16.40;44.50;;;;;;5054014;28;20049;-85
2021/04/24 11:10:57;;;;;;;9.90;5.75;;;16.70;45.30;;;;;;5053939;28;20055;-86
2021/04/24 11:13:27;;;;;;;7.85;5.68;;;16.80;44.50;;;;;;5054379;28;20048;-82
2021/04/24 11:15:55;;;;;;;14.65;7.07;;;16.80;42.50;;;;;;5071488;28;20037;-82
2021/04/24 11:18:24;;;;;;;8.70;6.00;;;16.80;43.50;;;;;;5064044;28;20049;-78
2021/04/24 11:21:06;;;;;;;8.82;5.30;;;16.80;44.50;;;;;;5056782;28;20051;-79
2021/04/24 11:23:39;;;;;;;10.35;5.80;;;16.80;45.80;;;;;;5058436;28;20371;-78
2021/04/24 11:26:12;;;;;;;13.02;6.70;;;16.90;44.20;;;;;;5047463;28;20053;-79
2021/04/24 11:29:07;;;;;;;12.18;7.03;;;16.70;42.10;;;;;;5050126;28;20048;-81
2021/04/24 11:31:56;;;;;;;9.07;7.03;;;16.70;42.80;;;;;;5033851;28;20041;-81
2021/04/24 11:34:30;;;;;;;11.93;7.40;;;16.70;45.60;;;;;;5059298;28;20406;-80
2021/04/24 11:37:20;;;;;;;9.07;6.32;;;16.70;45.50;;;;;;5049989;28;20041;-80
2021/04/24 11:40:20;;;;;;;11.20;6.28;;;16.60;50.00;;;;;;5049767;28;20037;-85
2021/04/24 11:42:51;;;;;;;8.90;6.00;;;16.40;51.00;;;;;;5050086;28;20052;-84
2021/04/24 11:45:54;;;;;;;11.70;7.30;;;16.60;44.00;;;;;;5034022;28;20056;-87
2021/04/24 11:48:44;;;;;;;9.38;5.80;;;16.70;42.50;;;;;;5049991;28;20048;-83
2021/04/24 11:51:31;;;;;;;8.80;6.45;;;16.80;41.80;;;;;;5050056;28;20041;-84
2021/04/24 11:54:10;;;;;;;14.23;6.22;;;16.80;41.70;;;;;;5049163;28;20068;-80
2021/04/24 11:56:39;;;;;;;12.55;6.28;;;16.60;41.30;;;;;;5071952;28;20048;-79
2021/04/24 11:59:07;;;;;;;12.73;7.18;;;16.60;45.20;;;;;;5090956;28;20039;-80
2021/04/24 12:01:37;;;;;;;12.23;8.23;;;16.60;43.00;;;;;;5091336;28;20052;-81
2021/04/24 12:04:05;;;;;;;10.43;5.68;;;16.80;42.20;;;;;;5067273;28;20045;-80
2021/04/24 12:06:40;;;;;;;9.10;6.40;;;16.80;41.20;;;;;;5051039;28;20056;-81
2021/04/24 12:09:12;;;;;;;10.05;7.28;;;16.70;41.90;;;;;;5050634;28;20510;-81
2021/04/24 12:11:52;;;;;;;12.40;6.63;;;16.60;41.20;;;;;;5050759;28;20055;-80
2021/04/24 12:14:20;;;;;;;9.32;6.55;;;16.40;42.50;;;;;;5050731;28;20057;-81
2021/04/24 12:16:49;;;;;;;11.38;6.72;;;16.50;38.50;;;;;;5049947;28;20142;-80
2021/04/24 12:19:36;;;;;;;12.25;6.72;;;16.70;39.90;;;;;;5055222;28;20517;-85
2021/04/24 12:22:16;;;;;;;12.35;7.28;;;16.80;39.30;;;;;;5071199;28;20053;-84
2021/04/24 12:25:00;;;;;;;15.18;6.35;;;16.70;38.50;;;;;;5052321;28;20044;-85
2021/04/24 12:27:29;;;;;;;9.33;6.67;;;16.60;40.60;;;;;;5052786;28;20048;-85
2021/04/24 12:29:58;;;;;;;7.55;5.43;;;16.80;44.50;;;;;;5053067;28;20051;-84
2021/04/24 12:32:53;;;;;;;15.40;6.63;;;17.00;41.80;;;;;;5053200;28;20514;-88
2021/04/24 12:35:26;;;;;;;14.65;8.05;;;16.70;39.20;;;;;;5010753;28;20044;-84
2021/04/24 12:38:11;;;;;;;14.68;7.75;;;16.70;41.40;;;;;;5038047;28;20501;-88
2021/04/24 12:40:54;;;;;;;9.65;6.18;;;16.60;37.50;;;;;;5053350;28;20052;-84
2021/04/24 12:43:26;;;;;;;12.75;6.70;;;16.60;43.00;;;;;;5053006;28;20048;-85
2021/04/24 12:45:57;;;;;;;10.45;7.32;;;16.60;44.70;;;;;;5035997;28;20049;-84
2021/04/24 12:48:32;;;;;;;7.53;5.97;;;16.70;40.20;;;;;;5069338;28;20480;-85
2021/04/24 12:51:01;;;;;;;9.27;5.05;;;16.80;37.70;;;;;;5051951;28;20057;-85
2021/04/24 12:53:32;;;;;;;8.60;4.65;;;16.80;39.00;;;;;;5052529;28;20705;-84
2021/04/24 12:56:05;;;;;;;13.25;5.78;;;16.60;40.60;;;;;;5035271;28;20047;-84
2021/04/24 12:58:36;;;;;;;9.88;6.93;;;16.90;36.40;;;;;;5033835;28;20045;-83
2021/04/24 13:01:16;;;;;;;9.10;6.00;;;17.00;39.20;;;;;;4999024;28;20041;-85
2021/04/24 13:03:46;;;;;;;16.77;7.87;;;17.10;34.00;;;;;;5056245;28;20045;-84